SYN001 KLGA-KDCA
Flight info
| Callsign | SYN001 |
|---|---|
| Flight time | 0h 46m |
| Altitude | 30000 |
| Route | BIGGY Q75 MXE CLIPR3 |
| Aircraft | BCS3/M-SBDE2E3GIRWXY/LB1 |
Departure
| Time | 2026-05-06 01:11 |
|---|---|
| Airport | LaGuardia Airport (KLGA) |
Arrival
| Time | 2026-05-06 01:57 |
|---|---|
| Airport | Ronald Reagan Washington National Airport (KDCA) |
| Time | Latitude | Longitude | Altitude | Speed | Heading |
|---|---|---|---|---|---|
| 2026-05-06 00:27 | 40.77215 | -73.86652 | 19 ft | 0 kts | 167° |
| 2026-05-06 00:59 | 40.77217 | -73.86652 | 10 ft | 3 kts | 167° |
| 2026-05-06 01:00 | 40.77240 | -73.86659 | 23 ft | 3 kts | 167° |
| 2026-05-06 01:00 | 40.77252 | -73.86663 | 21 ft | 3 kts | 167° |
| 2026-05-06 01:00 | 40.77271 | -73.86669 | 21 ft | 3 kts | 167° |
| 2026-05-06 01:00 | 40.77289 | -73.86674 | 22 ft | 3 kts | 167° |
| 2026-05-06 01:01 | 40.77296 | -73.86677 | 22 ft | 0 kts | 167° |
| 2026-05-06 01:01 | 40.77298 | -73.86677 | 22 ft | 0 kts | 167° |
| 2026-05-06 01:03 | 40.77297 | -73.86677 | 22 ft | 0 kts | 167° |
| 2026-05-06 01:03 | 40.77285 | -73.86669 | 21 ft | 4 kts | 142° |
| 2026-05-06 01:03 | 40.77281 | -73.86643 | 20 ft | 2 kts | 63° |
| 2026-05-06 01:04 | 40.77318 | -73.86607 | 18 ft | 2 kts | 33° |
| 2026-05-06 01:04 | 40.77337 | -73.86590 | 19 ft | 6 kts | 33° |
| 2026-05-06 01:04 | 40.77379 | -73.86554 | 16 ft | 8 kts | 26° |
| 2026-05-06 01:04 | 40.77433 | -73.86564 | 16 ft | 9 kts | 339° |
| 2026-05-06 01:05 | 40.77499 | -73.86587 | 15 ft | 10 kts | 330° |
| 2026-05-06 01:05 | 40.77547 | -73.86662 | 17 ft | 11 kts | 302° |
| 2026-05-06 01:05 | 40.77589 | -73.86750 | 17 ft | 13 kts | 302° |
| 2026-05-06 01:05 | 40.77660 | -73.86898 | 17 ft | 22 kts | 302° |
| 2026-05-06 01:06 | 40.77739 | -73.87062 | 22 ft | 20 kts | 302° |
| 2026-05-06 01:06 | 40.77815 | -73.87220 | 22 ft | 21 kts | 302° |
| 2026-05-06 01:06 | 40.77890 | -73.87378 | 23 ft | 20 kts | 302° |
| 2026-05-06 01:06 | 40.77943 | -73.87489 | 22 ft | 14 kts | 302° |
| 2026-05-06 01:07 | 40.77997 | -73.87602 | 21 ft | 15 kts | 302° |
| 2026-05-06 01:07 | 40.78052 | -73.87718 | 23 ft | 16 kts | 302° |
| 2026-05-06 01:07 | 40.78089 | -73.87794 | 19 ft | 0 kts | 302° |
| 2026-05-06 01:07 | 40.78092 | -73.87801 | 19 ft | 2 kts | 302° |
| 2026-05-06 01:08 | 40.78101 | -73.87819 | 19 ft | 3 kts | 302° |
| 2026-05-06 01:08 | 40.78111 | -73.87835 | 19 ft | 2 kts | 319° |
| 2026-05-06 01:08 | 40.78124 | -73.87849 | 20 ft | 4 kts | 323° |
| 2026-05-06 01:08 | 40.78193 | -73.87852 | 21 ft | 11 kts | 36° |
| 2026-05-06 01:09 | 40.78204 | -73.87812 | 20 ft | 3 kts | 102° |
| 2026-05-06 01:09 | 40.78186 | -73.87759 | 21 ft | 0 kts | 122° |
| 2026-05-06 01:09 | 40.78185 | -73.87756 | 20 ft | 0 kts | 122° |
| 2026-05-06 01:10 | 40.78180 | -73.87748 | 20 ft | 4 kts | 122° |
| 2026-05-06 01:10 | 40.78095 | -73.87572 | 20 ft | 49 kts | 122° |
| 2026-05-06 01:11 | 40.77785 | -73.86932 | 22 ft | 116 kts | 122° |
| 2026-05-06 01:11 | 40.77273 | -73.85865 | 396 ft | 142 kts | 127° |
| 2026-05-06 01:11 | 40.76746 | -73.84696 | 1021 ft | 152 kts | 128° |
| 2026-05-06 01:11 | 40.76066 | -73.83741 | 1790 ft | 132 kts | 171° |
| 2026-05-06 01:12 | 40.75196 | -73.83517 | 2452 ft | 135 kts | 185° |
| 2026-05-06 01:12 | 40.74199 | -73.83369 | 2958 ft | 156 kts | 182° |
| 2026-05-06 01:12 | 40.73057 | -73.83103 | 3500 ft | 177 kts | 179° |
| 2026-05-06 01:12 | 40.71815 | -73.82909 | 4024 ft | 187 kts | 196° |
| 2026-05-06 01:13 | 40.70656 | -73.83669 | 4578 ft | 194 kts | 225° |
| 2026-05-06 01:13 | 40.69705 | -73.84970 | 5294 ft | 202 kts | 231° |
| 2026-05-06 01:13 | 40.68769 | -73.86380 | 6194 ft | 206 kts | 232° |
| 2026-05-06 01:13 | 40.67848 | -73.87860 | 6994 ft | 213 kts | 241° |
| 2026-05-06 01:14 | 40.67998 | -73.91779 | 8318 ft | 246 kts | 293° |
| 2026-05-06 01:14 | 40.68874 | -73.93819 | 8903 ft | 264 kts | 296° |
| 2026-05-06 01:14 | 40.69828 | -73.95921 | 9728 ft | 269 kts | 298° |
| 2026-05-06 01:15 | 40.71049 | -73.97820 | 10385 ft | 280 kts | 304° |
| 2026-05-06 01:15 | 40.71877 | -74.00160 | 10783 ft | 290 kts | 279° |
| 2026-05-06 01:15 | 40.71839 | -74.02843 | 11248 ft | 299 kts | 255° |
| 2026-05-06 01:15 | 40.71135 | -74.05435 | 11934 ft | 303 kts | 248° |
| 2026-05-06 01:16 | 40.70410 | -74.07773 | 12605 ft | 305 kts | 248° |
| 2026-05-06 01:16 | 40.69592 | -74.10388 | 13257 ft | 309 kts | 247° |
| 2026-05-06 01:16 | 40.68765 | -74.13026 | 13934 ft | 313 kts | 247° |
| 2026-05-06 01:16 | 40.67933 | -74.15678 | 14625 ft | 315 kts | 247° |
| 2026-05-06 01:17 | 40.67092 | -74.18358 | 15307 ft | 317 kts | 247° |
| 2026-05-06 01:17 | 40.66243 | -74.21056 | 15974 ft | 319 kts | 247° |
| 2026-05-06 01:17 | 40.65390 | -74.23769 | 16657 ft | 322 kts | 247° |
| 2026-05-06 01:17 | 40.64528 | -74.26504 | 17347 ft | 324 kts | 246° |
| 2026-05-06 01:18 | 40.63661 | -74.29255 | 18053 ft | 327 kts | 246° |
| 2026-05-06 01:18 | 40.62787 | -74.32023 | 18641 ft | 329 kts | 246° |
| 2026-05-06 01:18 | 40.61914 | -74.34787 | 19200 ft | 332 kts | 246° |
| 2026-05-06 01:18 | 40.61022 | -74.37606 | 19754 ft | 335 kts | 246° |
| 2026-05-06 01:19 | 40.60124 | -74.40443 | 20314 ft | 337 kts | 246° |
| 2026-05-06 01:19 | 40.59218 | -74.43302 | 20882 ft | 340 kts | 246° |
| 2026-05-06 01:19 | 40.58306 | -74.46176 | 21424 ft | 342 kts | 246° |
| 2026-05-06 01:19 | 40.57382 | -74.49088 | 21797 ft | 349 kts | 246° |
| 2026-05-06 01:20 | 40.56434 | -74.52069 | 21879 ft | 353 kts | 246° |
| 2026-05-06 01:20 | 40.55496 | -74.55019 | 21874 ft | 343 kts | 246° |
| 2026-05-06 01:20 | 40.54583 | -74.57888 | 21879 ft | 342 kts | 246° |
| 2026-05-06 01:20 | 40.53666 | -74.60766 | 21876 ft | 347 kts | 246° |
| 2026-05-06 01:21 | 40.52725 | -74.63715 | 21866 ft | 345 kts | 246° |
| 2026-05-06 01:21 | 40.51801 | -74.66609 | 21868 ft | 343 kts | 246° |
| 2026-05-06 01:21 | 40.50883 | -74.69480 | 21872 ft | 345 kts | 246° |
| 2026-05-06 01:21 | 40.49953 | -74.72386 | 21870 ft | 344 kts | 246° |
| 2026-05-06 01:22 | 40.49027 | -74.75278 | 21868 ft | 343 kts | 246° |
| 2026-05-06 01:22 | 40.48099 | -74.78172 | 21865 ft | 344 kts | 246° |
| 2026-05-06 01:22 | 40.47170 | -74.81068 | 21868 ft | 344 kts | 246° |
| 2026-05-06 01:22 | 40.46240 | -74.83965 | 21890 ft | 343 kts | 246° |
| 2026-05-06 01:23 | 40.45315 | -74.86843 | 21894 ft | 343 kts | 246° |
| 2026-05-06 01:23 | 40.44384 | -74.89738 | 21893 ft | 344 kts | 246° |
| 2026-05-06 01:23 | 40.43455 | -74.92628 | 21894 ft | 343 kts | 246° |
| 2026-05-06 01:23 | 40.42523 | -74.95506 | 21887 ft | 342 kts | 244° |
| 2026-05-06 01:24 | 40.41214 | -74.98095 | 21893 ft | 343 kts | 231° |
| 2026-05-06 01:24 | 40.39644 | -75.00460 | 21895 ft | 342 kts | 229° |
| 2026-05-06 01:24 | 40.38058 | -75.02723 | 21898 ft | 341 kts | 228° |
| 2026-05-06 01:24 | 40.36439 | -75.05005 | 21894 ft | 343 kts | 227° |
| 2026-05-06 01:25 | 40.34813 | -75.07293 | 21897 ft | 342 kts | 227° |
| 2026-05-06 01:25 | 40.33186 | -75.09578 | 21899 ft | 341 kts | 227° |
| 2026-05-06 01:25 | 40.31566 | -75.11852 | 21893 ft | 342 kts | 227° |
| 2026-05-06 01:25 | 40.29935 | -75.14137 | 21898 ft | 342 kts | 227° |
| 2026-05-06 01:26 | 40.28310 | -75.16414 | 21895 ft | 342 kts | 227° |
| 2026-05-06 01:26 | 40.26708 | -75.18654 | 21897 ft | 342 kts | 227° |
| 2026-05-06 01:26 | 40.25082 | -75.20927 | 21900 ft | 342 kts | 227° |
| 2026-05-06 01:26 | 40.23475 | -75.23172 | 21910 ft | 342 kts | 227° |
| 2026-05-06 01:27 | 40.21852 | -75.25437 | 21914 ft | 341 kts | 227° |
| 2026-05-06 01:27 | 40.20226 | -75.27706 | 21918 ft | 342 kts | 227° |
| 2026-05-06 01:27 | 40.18596 | -75.29976 | 21915 ft | 342 kts | 227° |
| 2026-05-06 01:27 | 40.16966 | -75.32246 | 21915 ft | 342 kts | 227° |
| 2026-05-06 01:28 | 40.15342 | -75.34507 | 21917 ft | 342 kts | 227° |
| 2026-05-06 01:28 | 40.13709 | -75.36776 | 21917 ft | 341 kts | 227° |
| 2026-05-06 01:28 | 40.12086 | -75.39031 | 21915 ft | 341 kts | 227° |
| 2026-05-06 01:28 | 40.10454 | -75.41297 | 21910 ft | 341 kts | 227° |
| 2026-05-06 01:29 | 40.08825 | -75.43556 | 21910 ft | 341 kts | 227° |
| 2026-05-06 01:29 | 40.07217 | -75.45786 | 21921 ft | 341 kts | 227° |
| 2026-05-06 01:29 | 40.05589 | -75.48041 | 21925 ft | 341 kts | 227° |
| 2026-05-06 01:29 | 40.03959 | -75.50297 | 21925 ft | 341 kts | 227° |
| 2026-05-06 01:30 | 40.02328 | -75.52553 | 21924 ft | 341 kts | 227° |
| 2026-05-06 01:30 | 40.00701 | -75.54802 | 21927 ft | 342 kts | 227° |
| 2026-05-06 01:30 | 39.99069 | -75.57057 | 21925 ft | 341 kts | 227° |
| 2026-05-06 01:30 | 39.97438 | -75.59307 | 21924 ft | 341 kts | 227° |
| 2026-05-06 01:31 | 39.95802 | -75.61563 | 21927 ft | 342 kts | 227° |
| 2026-05-06 01:31 | 39.94165 | -75.63818 | 21926 ft | 342 kts | 227° |
| 2026-05-06 01:31 | 39.92530 | -75.66070 | 21926 ft | 341 kts | 227° |
| 2026-05-06 01:31 | 39.91059 | -75.68487 | 21931 ft | 342 kts | 235° |
| 2026-05-06 01:32 | 39.89712 | -75.71047 | 21915 ft | 342 kts | 236° |
| 2026-05-06 01:32 | 39.88385 | -75.73605 | 21902 ft | 341 kts | 236° |
| 2026-05-06 01:32 | 39.87060 | -75.76160 | 21909 ft | 341 kts | 236° |
| 2026-05-06 01:32 | 39.85741 | -75.78697 | 21898 ft | 342 kts | 236° |
| 2026-05-06 01:33 | 39.84392 | -75.81289 | 21908 ft | 341 kts | 236° |
| 2026-05-06 01:33 | 39.83076 | -75.83814 | 21908 ft | 342 kts | 236° |
| 2026-05-06 01:33 | 39.81738 | -75.86379 | 21893 ft | 342 kts | 236° |
| 2026-05-06 01:33 | 39.80399 | -75.88942 | 21902 ft | 341 kts | 236° |
| 2026-05-06 01:34 | 39.79062 | -75.91498 | 21894 ft | 342 kts | 236° |
| 2026-05-06 01:34 | 39.77722 | -75.94059 | 21894 ft | 342 kts | 236° |
| 2026-05-06 01:34 | 39.76383 | -75.96615 | 21890 ft | 342 kts | 236° |
| 2026-05-06 01:34 | 39.75045 | -75.99167 | 21894 ft | 342 kts | 236° |
| 2026-05-06 01:35 | 39.73718 | -76.01694 | 21902 ft | 342 kts | 236° |
| 2026-05-06 01:35 | 39.72362 | -76.04277 | 21875 ft | 342 kts | 236° |
| 2026-05-06 01:35 | 39.71018 | -76.06835 | 20647 ft | 359 kts | 236° |
| 2026-05-06 01:35 | 39.69560 | -76.09606 | 19247 ft | 378 kts | 236° |
| 2026-05-06 01:36 | 39.68077 | -76.12421 | 18414 ft | 375 kts | 236° |
| 2026-05-06 01:36 | 39.66624 | -76.15176 | 17779 ft | 363 kts | 236° |
| 2026-05-06 01:36 | 39.65227 | -76.17824 | 17263 ft | 348 kts | 236° |
| 2026-05-06 01:36 | 39.63889 | -76.20358 | 16802 ft | 333 kts | 236° |
| 2026-05-06 01:37 | 39.62608 | -76.22781 | 16438 ft | 319 kts | 236° |
| 2026-05-06 01:37 | 39.61362 | -76.25138 | 16066 ft | 316 kts | 236° |
| 2026-05-06 01:37 | 39.60119 | -76.27487 | 15665 ft | 316 kts | 236° |
| 2026-05-06 01:37 | 39.58773 | -76.29736 | 15246 ft | 316 kts | 225° |
| 2026-05-06 01:38 | 39.57045 | -76.31503 | 14839 ft | 316 kts | 218° |
| 2026-05-06 01:38 | 39.55302 | -76.33055 | 14443 ft | 316 kts | 216° |
| 2026-05-06 01:38 | 39.53482 | -76.34641 | 14017 ft | 313 kts | 216° |
| 2026-05-06 01:38 | 39.51691 | -76.36200 | 13599 ft | 306 kts | 216° |
| 2026-05-06 01:39 | 39.49863 | -76.37794 | 13158 ft | 321 kts | 216° |
| 2026-05-06 01:39 | 39.48023 | -76.39394 | 12725 ft | 316 kts | 216° |
| 2026-05-06 01:39 | 39.46206 | -76.40972 | 12307 ft | 311 kts | 216° |
| 2026-05-06 01:39 | 39.44448 | -76.42498 | 12062 ft | 304 kts | 216° |
| 2026-05-06 01:40 | 39.42696 | -76.44018 | 12025 ft | 305 kts | 216° |
| 2026-05-06 01:40 | 39.40931 | -76.45548 | 12023 ft | 299 kts | 216° |
| 2026-05-06 01:40 | 39.39252 | -76.47001 | 12010 ft | 282 kts | 216° |
| 2026-05-06 01:40 | 39.37641 | -76.48395 | 12019 ft | 276 kts | 216° |
| 2026-05-06 01:41 | 39.36038 | -76.49785 | 12025 ft | 279 kts | 216° |
| 2026-05-06 01:41 | 39.33193 | -76.52252 | 12038 ft | 309 kts | 216° |
| 2026-05-06 01:41 | 39.31415 | -76.53791 | 12032 ft | 309 kts | 216° |
| 2026-05-06 01:42 | 39.29666 | -76.55298 | 12011 ft | 293 kts | 216° |
| 2026-05-06 01:42 | 39.28013 | -76.56721 | 12018 ft | 279 kts | 216° |
| 2026-05-06 01:42 | 39.26412 | -76.58101 | 11993 ft | 277 kts | 216° |
| 2026-05-06 01:42 | 39.24789 | -76.59502 | 12006 ft | 286 kts | 216° |
| 2026-05-06 01:43 | 39.23059 | -76.60998 | 12007 ft | 310 kts | 216° |
| 2026-05-06 01:43 | 39.21313 | -76.62501 | 11968 ft | 298 kts | 216° |
| 2026-05-06 01:43 | 39.19635 | -76.63942 | 11907 ft | 283 kts | 216° |
| 2026-05-06 01:43 | 39.18037 | -76.65312 | 11854 ft | 266 kts | 216° |
| 2026-05-06 01:44 | 39.16604 | -76.66696 | 11683 ft | 250 kts | 223° |
| 2026-05-06 01:44 | 39.15352 | -76.68161 | 11562 ft | 236 kts | 225° |
| 2026-05-06 01:44 | 39.14181 | -76.69554 | 11385 ft | 226 kts | 225° |
| 2026-05-06 01:44 | 39.13025 | -76.70934 | 11018 ft | 225 kts | 225° |
| 2026-05-06 01:45 | 39.11877 | -76.72301 | 10697 ft | 225 kts | 225° |
| 2026-05-06 01:45 | 39.10731 | -76.73663 | 10349 ft | 224 kts | 225° |
| 2026-05-06 01:45 | 39.09599 | -76.75009 | 10106 ft | 220 kts | 224° |
| 2026-05-06 01:45 | 39.08476 | -76.76340 | 10052 ft | 221 kts | 225° |
| 2026-05-06 01:46 | 39.07335 | -76.77694 | 10046 ft | 223 kts | 225° |
| 2026-05-06 01:46 | 39.06194 | -76.79045 | 10044 ft | 223 kts | 224° |
| 2026-05-06 01:46 | 39.05077 | -76.80366 | 9902 ft | 219 kts | 225° |
| 2026-05-06 01:46 | 39.03941 | -76.81709 | 9516 ft | 219 kts | 225° |
| 2026-05-06 01:47 | 39.02821 | -76.83034 | 9144 ft | 217 kts | 224° |
| 2026-05-06 01:47 | 39.01715 | -76.84341 | 8774 ft | 215 kts | 224° |
| 2026-05-06 01:47 | 39.00623 | -76.85631 | 8427 ft | 213 kts | 224° |
| 2026-05-06 01:47 | 38.99539 | -76.86910 | 8106 ft | 209 kts | 224° |
| 2026-05-06 01:48 | 38.98474 | -76.88166 | 7798 ft | 205 kts | 224° |
| 2026-05-06 01:48 | 38.97567 | -76.89571 | 7402 ft | 204 kts | 245° |
| 2026-05-06 01:48 | 38.97322 | -76.91394 | 7126 ft | 209 kts | 264° |
| 2026-05-06 01:48 | 38.97336 | -76.93219 | 6919 ft | 208 kts | 266° |
| 2026-05-06 01:49 | 38.97390 | -76.94998 | 7440 ft | 198 kts | 266° |
| 2026-05-06 01:49 | 38.97445 | -76.96765 | 7208 ft | 201 kts | 266° |
| 2026-05-06 01:49 | 38.97504 | -76.98604 | 6694 ft | 209 kts | 266° |
| 2026-05-06 01:49 | 38.97567 | -77.00463 | 6365 ft | 208 kts | 265° |
| 2026-05-06 01:50 | 38.97770 | -77.02303 | 6067 ft | 214 kts | 285° |
| 2026-05-06 01:50 | 38.98658 | -77.03946 | 5552 ft | 235 kts | 305° |
| 2026-05-06 01:50 | 38.99855 | -77.05455 | 4934 ft | 245 kts | 308° |
| 2026-05-06 01:50 | 39.01114 | -77.06971 | 4297 ft | 250 kts | 308° |
| 2026-05-06 01:51 | 39.02369 | -77.08474 | 4041 ft | 241 kts | 308° |
| 2026-05-06 01:51 | 39.03371 | -77.10030 | 3992 ft | 212 kts | 282° |
| 2026-05-06 01:51 | 39.03445 | -77.11778 | 4021 ft | 188 kts | 245° |
| 2026-05-06 01:51 | 39.02784 | -77.13133 | 4042 ft | 178 kts | 230° |
| 2026-05-06 01:52 | 39.02019 | -77.14410 | 4024 ft | 177 kts | 230° |
| 2026-05-06 01:52 | 39.01301 | -77.15604 | 4009 ft | 161 kts | 230° |
| 2026-05-06 01:52 | 39.00555 | -77.16647 | 3782 ft | 161 kts | 213° |
| 2026-05-06 01:52 | 38.99464 | -77.16882 | 3584 ft | 167 kts | 175° |
| 2026-05-06 01:53 | 38.98369 | -77.16386 | 3392 ft | 173 kts | 167° |
| 2026-05-06 01:53 | 38.97272 | -77.15767 | 3153 ft | 172 kts | 165° |
| 2026-05-06 01:53 | 38.96226 | -77.14997 | 2920 ft | 174 kts | 153° |
| 2026-05-06 01:53 | 38.95301 | -77.14009 | 2685 ft | 171 kts | 149° |
| 2026-05-06 01:54 | 38.94416 | -77.13018 | 2444 ft | 166 kts | 149° |
| 2026-05-06 01:54 | 38.93553 | -77.12059 | 2224 ft | 161 kts | 152° |
| 2026-05-06 01:54 | 38.92647 | -77.11350 | 2028 ft | 146 kts | 162° |
| 2026-05-06 01:54 | 38.91794 | -77.10783 | 1841 ft | 131 kts | 164° |
| 2026-05-06 01:55 | 38.91060 | -77.10065 | 1666 ft | 138 kts | 143° |
| 2026-05-06 01:55 | 38.90573 | -77.09013 | 1477 ft | 142 kts | 122° |
| 2026-05-06 01:55 | 38.90265 | -77.07755 | 1295 ft | 148 kts | 127° |
| 2026-05-06 01:55 | 38.89696 | -77.06747 | 1086 ft | 134 kts | 143° |
| 2026-05-06 01:56 | 38.89044 | -77.05860 | 940 ft | 138 kts | 140° |
| 2026-05-06 01:56 | 38.88404 | -77.04967 | 784 ft | 136 kts | 138° |
| 2026-05-06 01:56 | 38.87715 | -77.04175 | 578 ft | 129 kts | 159° |
| 2026-05-06 01:56 | 38.86843 | -77.03940 | 325 ft | 133 kts | 178° |
| 2026-05-06 01:57 | 38.85901 | -77.03847 | 53 ft | 137 kts | 178° |
| 2026-05-06 01:57 | 38.85071 | -77.03773 | 23 ft | 94 kts | 174° |
| 2026-05-06 01:57 | 38.84623 | -77.03720 | 22 ft | 28 kts | 175° |
| 2026-05-06 01:57 | 38.84439 | -77.03720 | 22 ft | 20 kts | 194° |
| 2026-05-06 01:58 | 38.84388 | -77.03805 | 21 ft | 5 kts | 265° |
| 2026-05-06 01:58 | 38.84386 | -77.03848 | 25 ft | 4 kts | 267° |
| 2026-05-06 01:58 | 38.84386 | -77.03860 | 26 ft | 0 kts | 267° |
| 2026-05-06 02:00 | 38.84386 | -77.03864 | 26 ft | 2 kts | 267° |
| 2026-05-06 02:00 | 38.84387 | -77.03940 | 26 ft | 15 kts | 285° |
| 2026-05-06 02:00 | 38.84506 | -77.04005 | 27 ft | 19 kts | 351° |
| 2026-05-06 02:00 | 38.84568 | -77.04017 | 28 ft | 10 kts | 351° |
| 2026-05-06 02:01 | 38.84644 | -77.04027 | 23 ft | 10 kts | 16° |
| 2026-05-06 02:01 | 38.84715 | -77.03989 | 25 ft | 12 kts | 25° |
| 2026-05-06 02:01 | 38.84796 | -77.03946 | 22 ft | 14 kts | 9° |
| 2026-05-06 02:01 | 38.84900 | -77.03947 | 20 ft | 16 kts | 357° |
| 2026-05-06 02:02 | 38.84975 | -77.03978 | 20 ft | 7 kts | 300° |
| 2026-05-06 02:02 | 38.84997 | -77.04029 | 21 ft | 1 kts | 300° |
| 2026-05-06 02:02 | 38.84999 | -77.04035 | 21 ft | 0 kts | 300° |